CYYZ METAR and TAF weather

Enter ICAO airport designator

Example: see airport list

Station Type Date Time Source
CYYZ METAR 2016/07/31 00:00 UTC NOAA

CYYZ 310000Z 08009KT 15SM FEW120 SCT270 24/11 A3001 RMK AC1CI4 AC TR SLP162 DENSITY ALT 1600FT

Station Type Date Time Source
CYYZ Decoded METAR 2016/07/31 00:00 UTC NOAA

Toronto Pearson Int'L. Ont., Canada (CYYZ) 43-40N 079-38W 173M
Jul 30, 2016 - 08:00 PM EDT / 2016.07.31 0000 UTC
Wind: from the E (080 degrees) at 10 MPH (9 KT):0
Visibility: 15 mile(s):0
Sky conditions: partly cloudy
Temperature: 75 F (24 C)
Dew Point: 51 F (11 C)
Relative Humidity: 43%
Pressure (altimeter): 30.01 in. Hg (1016 hPa)
ob: CYYZ 310000Z 08009KT 15SM FEW120 SCT270 24/11 A3001 RMK AC1CI4 AC TR SLP162 DENSITY ALT 1600FT
cycle: 0

Station Type Date Time Source
CYYZ TAF 2016/07/30 21:42 UTC NOAA

TAF CYYZ 302038Z 3021/3124 09010KT P6SM SCT070 BKN150
FM310800 05010KT P6SM SCT020 BKN050
TEMPO 3111/3114 P6SM -SHRA BKN020
FM311600 07012G22KT P6SM BKN025
RMK NXT FCST BY 310000Z